General Abelardo L. Rodríguez International Airport
MMTJ : rendu visible

Aérodrome :











RETROUVEZ-NOUS SUR...

 
LOGIN :

S'inscrire | Disclaimer

   EN    FR    IT 

 









Légende :    VFR   VFR Marginal   IFR   IFR Intensif   IFR Très Intensif
Visi : 
Plafond : 
>= 8 km
>= 3000ft
5 à 8 km
1000 à 3000 ft
1500m à 5 km
500 à 1000 ft
800 à 1500m
200 à 500 ft
< 800m
< 200 ft
Symboles :   Orages  Brouillard  Fortes neiges  Fortes précipitations  Vent > 20 kt






- Altitude de l'aérodrome : 489 ft
- Code IATA : TIJ


MMTJ - General Abelardo L. Rodríguez International

DERNIER METAR :
  • 011457Z 29010KT 1 1/2SM BR SCT010 OVC230 12/12 A2991 RMK 8/602 TWR VSBY

METARs EXPIRÉS :
  • 011405Z RTD 33005KT 5SM FEW100 SCT230 11/10 A2989 RMK 8/092 HZ RTS

TAF AMD TAF MMTJ
Valide du 01 à 15h jusqu'au 02 à 18h UTC


011518Z 0115/0218 29010KT 11/2SM FG BR SCT010 BKN250 TX18/0121Z TN12/0212Z
FM011700 00000KT 4SM HZ BKN015
FM011900 28010KT P6SM SCT015 BKN250
FM020300 00000KT 5SM HZ OVC015
TEMPO 0210/0214 2SM BR OVC010



MET'MAP, la Météo Aéronautique d'un coup d'oeil ! - Copyright ORBIFLY Décembre 2007 - Disclaimer

ORBIFLY MET'MAP TEAM :

Programmation & Développement : Alexandra Zaïnal
Sur une idée originale de : Baudouin d'Aumeries
Assistance à la programmation : Marc-Olivier Méhu
Soutien technique & logistique : Manuel Goepfert

Contact : metmap@orbifly.com




SOURCES & CREDITS :

   NOAA       Earth
Advisory